Terminal Aerodrome Forecast
Issued by NWS Wilmington, NC

Home | Current Version | Previous Version | Text Only | Print | Product List | Glossary On
Versions: 1 2 3 4 5 6 7 8 9 10 11 12 13 14 15 16 17 18 19
000
FTUS42 KILM 161722
TAFLBT
TAF
KLBT 161722Z 1618/1718 04004KT P6SM OVC015
     FM170200 06003KT P6SM BKN008
     FM170600 05002KT 4SM BR OVC004
     FM171500 24005KT P6SM SCT005 BKN015=

USA.gov is the U.S. government's official web portal to all federal, state and local government web resources and services.